createdAt,value
2019-04-25T00:01:54.861Z,99582.40
2019-04-25T00:04:23.241Z,99572.69
2019-04-25T00:06:52.154Z,99574.80
2019-04-25T00:09:22.017Z,99566.31
2019-04-25T00:11:51.914Z,99563.33
2019-04-25T00:14:22.594Z,99559.16
2019-04-25T00:16:51.833Z,99551.31
2019-04-25T00:19:21.892Z,99545.94
2019-04-25T00:22:18.465Z,99549.59
2019-04-25T00:24:55.549Z,99565.72
2019-04-25T00:27:24.151Z,99557.59
2019-04-25T00:29:52.945Z,99560.05
2019-04-25T00:32:21.689Z,99563.81
2019-04-25T00:34:49.884Z,99563.25
2019-04-25T00:37:18.081Z,99564.67
2019-04-25T00:39:47.087Z,99558.63
2019-04-25T00:42:15.310Z,99563.14
2019-04-25T00:44:44.845Z,99576.59
2019-04-25T00:47:13.478Z,99582.63
2019-04-25T00:49:43.845Z,99593.34
2019-04-25T00:52:12.148Z,99603.85
2019-04-25T00:54:41.416Z,99598.30
2019-04-25T00:57:12.114Z,99592.80
2019-04-25T00:59:58.512Z,99592.50
2019-04-25T01:02:40.211Z,99601.52
2019-04-25T01:05:08.702Z,99607.19
2019-04-25T01:07:36.917Z,99607.44
2019-04-25T01:10:06.588Z,99601.41
2019-04-25T01:12:34.834Z,99597.01
2019-04-25T01:15:03.782Z,99595.26
2019-04-25T01:17:32.078Z,99597.39
2019-04-25T01:20:00.327Z,99589.75
2019-04-25T01:22:28.556Z,99592.56
2019-04-25T01:24:56.732Z,99579.53
2019-04-25T01:27:24.925Z,99570.92
2019-04-25T01:29:54.456Z,99573.83
2019-04-25T01:32:30.656Z,99577.52
2019-04-25T01:35:06.512Z,99573.96
2019-04-25T01:37:54.843Z,99566.97
2019-04-25T01:40:43.928Z,99558.98
2019-04-25T01:43:19.520Z,99565.06
2019-04-25T01:45:48.240Z,99560.13
2019-04-25T01:48:16.708Z,99556.05
2019-04-25T01:50:44.958Z,99573.19
2019-04-25T01:53:14.599Z,99591.20
2019-04-25T01:55:53.623Z,99603.72
2019-04-25T01:58:13.740Z,99611.80
2019-04-25T02:00:46.091Z,99611.80
2019-04-25T02:03:14.269Z,99597.77
2019-04-25T02:05:43.860Z,99592.47
2019-04-25T02:08:14.172Z,99592.52
2019-04-25T02:10:44.052Z,99596.48
2019-04-25T02:15:48.522Z,99625.42
2019-04-25T02:18:16.805Z,99627.13
2019-04-25T02:20:45.017Z,99621.89
2019-04-25T02:23:14.131Z,99619.41
2019-04-25T02:25:44.270Z,99627.41
2019-04-25T02:28:13.964Z,99636.69
2019-04-25T02:30:45.134Z,99637.89
2019-04-25T02:33:14.244Z,99647.76
2019-04-25T02:35:43.970Z,99659.16
2019-04-25T02:38:16.631Z,99663.63
2019-04-25T02:40:45.227Z,99669.64
2019-04-25T02:43:14.284Z,99667.31
2019-04-25T02:46:01.587Z,99654.42
2019-04-25T02:48:48.888Z,99652.00
2019-04-25T02:51:36.204Z,99658.37
2019-04-25T02:54:07.657Z,99659.83
2019-04-25T02:56:38.462Z,99663.27
2019-04-25T02:59:07.005Z,99665.63
2019-04-25T03:01:34.515Z,99664.22
2019-04-25T03:04:04.918Z,99662.62
2019-04-25T03:06:34.855Z,99651.97
2019-04-25T03:09:04.009Z,99649.89
2019-04-25T03:11:34.568Z,99654.71
2019-04-25T03:14:02.354Z,99653.96
2019-04-25T03:16:30.529Z,99659.83
2019-04-25T03:19:17.704Z,99657.47
2019-04-25T03:21:47.238Z,99672.50
2019-04-25T03:24:16.857Z,99667.88
2019-04-25T03:26:45.185Z,99665.19
2019-04-25T03:29:13.714Z,99661.62
2019-04-25T03:31:44.713Z,99652.88
2019-04-25T03:34:16.049Z,99651.22
2019-04-25T03:36:43.717Z,99651.45
2019-04-25T03:39:14.456Z,99650.48
2019-04-25T03:41:42.046Z,99647.44
2019-04-25T03:44:10.203Z,99637.88
2019-04-25T03:46:38.433Z,99643.44
2019-04-25T03:49:07.548Z,99642.60
2019-04-25T03:51:35.927Z,99651.30
2019-04-25T03:54:04.870Z,99667.00
2019-04-25T03:56:33.977Z,99670.56
2019-04-25T03:59:04.817Z,99669.20
2019-04-25T04:01:32.149Z,99676.31
2019-04-25T04:04:00.343Z,99687.77
2019-04-25T04:06:28.492Z,99695.61
2019-04-25T04:08:56.677Z,99691.84
2019-04-25T04:11:24.915Z,99691.05
2019-04-25T04:13:53.549Z,99696.42
2019-04-25T04:16:25.369Z,99696.42
2019-04-25T04:18:55.831Z,99701.02
2019-04-25T04:21:41.080Z,99706.34
2019-04-25T04:24:16.277Z,99712.00
2019-04-25T04:27:05.349Z,99715.33
2019-04-25T04:29:33.450Z,99717.91
2019-04-25T04:32:03.021Z,99718.03
2019-04-25T04:34:31.295Z,99730.70
2019-04-25T04:36:59.473Z,99730.88
2019-04-25T04:39:27.740Z,99732.26
2019-04-25T04:41:55.959Z,99730.38
2019-04-25T04:44:24.234Z,99732.48
2019-04-25T04:46:53.801Z,99735.75
2019-04-25T04:49:23.507Z,99734.22
2019-04-25T04:51:52.039Z,99744.77
2019-04-25T04:54:20.187Z,99748.73
2019-04-25T04:56:48.481Z,99753.00
2019-04-25T04:59:16.660Z,99753.53
2019-04-25T05:02:03.859Z,99748.30
2019-04-25T05:04:43.514Z,99746.00
2019-04-25T05:07:30.828Z,99753.84
2019-04-25T05:09:59.306Z,99753.19
2019-04-25T05:12:27.742Z,99765.98
2019-04-25T05:14:56.036Z,99764.89
2019-04-25T05:17:25.434Z,99764.16
2019-04-25T05:19:54.007Z,99759.86
2019-04-25T05:22:23.925Z,99757.89
2019-04-25T05:24:53.485Z,99756.05
2019-04-25T05:27:36.034Z,99764.02
2019-04-25T05:29:51.724Z,99768.70
2019-04-25T05:32:19.898Z,99762.23
2019-04-25T05:34:49.406Z,99760.75
2019-04-25T05:37:17.683Z,99769.31
2019-04-25T05:39:45.950Z,99764.91
2019-04-25T05:42:48.712Z,99762.89
2019-04-25T05:45:18.650Z,99765.60
2019-04-25T05:47:46.382Z,99774.86
2019-04-25T05:50:15.704Z,99768.17
2019-04-25T05:52:45.816Z,99769.20
2019-04-25T05:55:14.268Z,99775.05
2019-04-25T05:57:49.642Z,99759.08
2019-04-25T06:00:15.102Z,99779.16
2019-04-25T06:02:45.847Z,99776.69
2019-04-25T06:05:13.310Z,99779.73
2019-04-25T06:07:43.132Z,99775.27
2019-04-25T06:10:30.143Z,99779.44
2019-04-25T06:13:29.378Z,99778.25
2019-04-25T06:16:05.725Z,99786.30
2019-04-25T06:18:39.794Z,99788.31
2019-04-25T06:21:09.673Z,99794.52
2019-04-25T06:24:05.900Z,99794.75
2019-04-25T06:26:41.334Z,99559.80
2019-04-25T06:29:09.480Z,99798.92
2019-04-25T06:31:37.711Z,99791.95
2019-04-25T06:34:05.908Z,99805.34
2019-04-25T06:36:35.314Z,99809.17
2019-04-25T06:39:04.106Z,99815.42
2019-04-25T06:41:34.044Z,99800.98
2019-04-25T06:44:04.222Z,99801.56
2019-04-25T06:46:53.542Z,99802.11
2019-04-25T06:49:27.865Z,99803.24
2019-04-25T06:51:56.032Z,99796.44
2019-04-25T06:54:25.790Z,99798.94
2019-04-25T06:56:54.170Z,99801.97
2019-04-25T06:59:25.539Z,99802.17
2019-04-25T07:01:54.097Z,99805.09
2019-04-25T07:04:22.765Z,99801.61
2019-04-25T07:06:51.423Z,99805.55
2019-04-25T07:09:19.557Z,99806.04
2019-04-25T07:11:48.236Z,99820.66
2019-04-25T07:14:16.413Z,99817.01
2019-04-25T07:16:44.539Z,99815.44
2019-04-25T07:19:14.680Z,99807.53
2019-04-25T07:21:44.271Z,99809.18
2019-04-25T07:24:14.139Z,99818.12
2019-04-25T07:27:07.622Z,99813.55
2019-04-25T07:29:48.137Z,99809.69
2019-04-25T07:32:28.102Z,99810.31
2019-04-25T07:34:55.172Z,99804.20
2019-04-25T07:37:24.226Z,99804.20
2019-04-25T07:39:54.110Z,99809.02
2019-04-25T07:42:23.565Z,99815.28
2019-04-25T07:44:53.416Z,99809.29
2019-04-25T07:47:21.993Z,99809.19
2019-04-25T07:49:50.721Z,99811.13
2019-04-25T07:52:18.877Z,99817.30
2019-04-25T07:54:47.059Z,99810.37
2019-04-25T07:57:15.215Z,99802.09
2019-04-25T07:59:43.688Z,99802.09
2019-04-25T08:02:13.320Z,99820.83
2019-04-25T08:04:41.591Z,99821.37
2019-04-25T08:07:09.751Z,99825.08
2019-04-25T08:09:38.072Z,99835.84
2019-04-25T08:12:06.266Z,99834.03
2019-04-25T08:14:40.336Z,99829.42
2019-04-25T08:17:09.333Z,99827.65
2019-04-25T08:19:37.611Z,99826.80
2019-04-25T08:22:06.607Z,99827.43
2019-04-25T08:24:37.248Z,99825.47
2019-04-25T08:27:05.844Z,99831.74
2019-04-25T08:29:36.347Z,99832.27
2019-04-25T08:32:04.587Z,99836.31
2019-04-25T08:34:34.399Z,99834.48
2019-04-25T08:37:04.096Z,99833.63
2019-04-25T08:39:34.407Z,99831.72
2019-04-25T08:42:03.461Z,99821.13
2019-04-25T08:44:32.458Z,99827.29
2019-04-25T08:47:01.227Z,99814.13
2019-04-25T08:49:42.931Z,99839.13
2019-04-25T08:52:11.025Z,99836.30
2019-04-25T08:54:57.474Z,99832.90
2019-04-25T08:57:44.037Z,99843.78
2019-04-25T09:00:27.352Z,99838.87
2019-04-25T09:02:59.676Z,99841.39
2019-04-25T09:05:47.058Z,99842.13
2019-04-25T09:08:15.163Z,99847.64
2019-04-25T09:10:44.793Z,99850.56
2019-04-25T09:13:13.506Z,99846.63
2019-04-25T09:15:41.796Z,99842.45
2019-04-25T09:18:10.026Z,99843.38
2019-04-25T09:20:40.840Z,99850.35
2019-04-25T09:23:08.088Z,99856.14
2019-04-25T09:25:36.816Z,99853.68
2019-04-25T09:28:05.102Z,99853.56
2019-04-25T09:30:34.945Z,99857.49
2019-04-25T09:33:04.608Z,99858.59
2019-04-25T09:35:33.538Z,99866.52
2019-04-25T09:38:03.388Z,99862.95
2019-04-25T09:40:31.622Z,99867.72
2019-04-25T09:42:59.796Z,99868.65
2019-04-25T09:45:37.614Z,99863.90
2019-04-25T09:48:13.259Z,99863.90
2019-04-25T09:50:46.687Z,99858.18
2019-04-25T09:53:23.531Z,99854.94
2019-04-25T09:55:58.254Z,99860.09
2019-04-25T09:58:37.971Z,99862.55
2019-04-25T10:01:10.942Z,99860.24
2019-04-25T10:03:39.514Z,99859.63
2019-04-25T10:06:07.882Z,99866.39
2019-04-25T10:08:36.989Z,99863.72
2019-04-25T10:11:05.617Z,99873.52
2019-04-25T10:13:33.897Z,99868.66
2019-04-25T10:16:09.370Z,99872.73
2019-04-25T10:18:39.151Z,99865.04
2019-04-25T10:21:10.828Z,99862.41
2019-04-25T10:23:39.904Z,99863.97
2019-04-25T10:26:09.316Z,99857.83
2019-04-25T10:28:38.733Z,99863.59
2019-04-25T10:31:07.921Z,99855.81
2019-04-25T10:33:36.086Z,99861.83
2019-04-25T10:36:06.010Z,99853.72
2019-04-25T10:38:35.123Z,99842.36
2019-04-25T10:41:04.195Z,99849.64
2019-04-25T10:43:34.085Z,99843.08
2019-04-25T10:46:03.491Z,99843.73
2019-04-25T10:48:32.359Z,99844.36
2019-04-25T10:51:00.675Z,99841.56
2019-04-25T10:53:29.003Z,99837.88
2019-04-25T10:55:57.404Z,99842.27
2019-04-25T10:58:25.609Z,99837.30
2019-04-25T11:00:53.731Z,99839.80
2019-04-25T11:03:54.412Z,99832.93
2019-04-25T11:06:27.202Z,99822.73
2019-04-25T11:08:56.438Z,99827.48
2019-04-25T11:11:24.826Z,99828.17
2019-04-25T11:13:55.653Z,99819.80
2019-04-25T11:16:24.263Z,99821.70
2019-04-25T11:18:53.136Z,99818.22
2019-04-25T11:21:24.150Z,99818.73
2019-04-25T11:23:55.312Z,99814.70
2019-04-25T11:26:22.606Z,99818.34
2019-04-25T11:28:51.018Z,99811.27
2019-04-25T11:31:25.383Z,99811.80
2019-04-25T11:33:54.513Z,99804.53
2019-04-25T11:36:24.764Z,99801.92
2019-04-25T11:39:27.163Z,99798.55
2019-04-25T11:41:55.686Z,99800.47
2019-04-25T11:44:24.571Z,99801.91
2019-04-25T11:46:53.222Z,99801.94
2019-04-25T11:49:21.420Z,99798.98
2019-04-25T11:51:50.271Z,99802.30
2019-04-25T11:54:18.664Z,99803.50
2019-04-25T11:56:47.328Z,99800.33
2019-04-25T11:59:15.817Z,99793.56
2019-04-25T12:01:45.375Z,99799.88
2019-04-25T12:04:14.910Z,99801.44
2019-04-25T12:06:47.036Z,99798.97
2019-04-25T12:09:13.885Z,99793.81
2019-04-25T12:11:44.539Z,99775.49
2019-04-25T12:14:12.000Z,99774.31
2019-04-25T12:16:40.270Z,99772.80
2019-04-25T12:19:08.653Z,99775.56
2019-04-25T12:21:36.781Z,99769.55
2019-04-25T12:24:05.865Z,99771.18
2019-04-25T12:26:34.315Z,99770.22
2019-04-25T12:29:04.254Z,99769.30
2019-04-25T12:31:34.071Z,99767.72
2019-04-25T12:34:03.443Z,99757.66
2019-04-25T12:36:31.772Z,99746.88
2019-04-25T12:38:59.913Z,99750.84
2019-04-25T12:41:28.290Z,99737.51
2019-04-25T12:44:21.845Z,99740.95
2019-04-25T12:46:50.815Z,99745.20
2019-04-25T12:49:19.075Z,99742.78
2019-04-25T12:51:47.769Z,99747.22
2019-04-25T12:54:16.138Z,99742.07
2019-04-25T12:56:44.344Z,99742.55
2019-04-25T12:59:12.554Z,99744.56
2019-04-25T13:01:40.826Z,99746.16
2019-04-25T13:04:09.390Z,99731.94
2019-04-25T13:06:37.582Z,99726.74
2019-04-25T13:09:07.481Z,99731.75
2019-04-25T13:11:35.657Z,99728.52
2019-04-25T13:14:03.955Z,99729.59
2019-04-25T13:16:32.145Z,99722.45
2019-04-25T13:19:13.598Z,99731.58
2019-04-25T13:21:30.302Z,99725.42
2019-04-25T13:23:58.482Z,99730.63
2019-04-25T13:26:29.799Z,99734.03
2019-04-25T13:29:09.442Z,99731.36
2019-04-25T13:31:55.929Z,99723.94
2019-04-25T13:34:36.237Z,99712.50
2019-04-25T13:37:01.883Z,99708.92
2019-04-25T13:39:30.314Z,99707.45
2019-04-25T13:42:00.668Z,99699.00
2019-04-25T13:44:28.398Z,99694.30
2019-04-25T13:46:56.626Z,99692.14
2019-04-25T13:49:25.060Z,99688.13
2019-04-25T13:51:53.454Z,99688.28
2019-04-25T13:54:23.752Z,99682.94
2019-04-25T13:56:53.372Z,99672.47
2019-04-25T13:59:21.823Z,99666.11
2019-04-25T14:01:50.058Z,99672.16
2019-04-25T14:04:18.613Z,99668.48
2019-04-25T14:06:46.899Z,99660.55
2019-04-25T14:09:18.193Z,99663.32
2019-04-25T14:11:46.356Z,99653.27
2019-04-25T14:14:14.560Z,99644.28
2019-04-25T14:16:59.021Z,99650.73
2019-04-25T14:19:46.310Z,99645.07
2019-04-25T14:22:14.490Z,99647.17
2019-04-25T14:24:44.044Z,99632.83
2019-04-25T14:27:13.652Z,99618.11
2019-04-25T14:29:41.905Z,99623.27
2019-04-25T14:32:11.876Z,99617.06
2019-04-25T14:34:39.990Z,99614.90
2019-04-25T14:37:08.317Z,99608.58
2019-04-25T14:39:36.491Z,99613.47
2019-04-25T14:42:04.755Z,99617.02
2019-04-25T14:44:33.562Z,99610.11
2019-04-25T14:47:02.051Z,99598.34
2019-04-25T14:49:30.554Z,99601.59
2019-04-25T14:51:58.813Z,99595.80
2019-04-25T14:54:35.661Z,99597.55
2019-04-25T14:57:25.954Z,99601.28
2019-04-25T14:59:54.367Z,99594.03
2019-04-25T15:02:23.889Z,99579.55
2019-04-25T15:04:52.036Z,99588.02
2019-04-25T15:07:20.226Z,99585.52
2019-04-25T15:09:48.405Z,99579.75
2019-04-25T15:12:18.115Z,99573.33
2019-04-25T15:14:46.314Z,99573.39
2019-04-25T15:17:14.567Z,99574.55
2019-04-25T15:19:42.678Z,99565.34
2019-04-25T15:22:10.934Z,99565.16
2019-04-25T15:24:39.057Z,99558.52
2019-04-25T15:27:07.331Z,99562.10
2019-04-25T15:29:35.463Z,99560.95
2019-04-25T15:32:04.230Z,99568.31
2019-04-25T15:34:39.237Z,99569.48
2019-04-25T15:37:20.363Z,99570.88
2019-04-25T15:39:55.521Z,99562.69
2019-04-25T15:42:41.911Z,99560.84
2019-04-25T15:45:38.695Z,99561.67
2019-04-25T15:48:08.184Z,99562.05
2019-04-25T15:50:36.352Z,99559.84
2019-04-25T15:53:04.683Z,99555.18
2019-04-25T15:55:33.082Z,99547.47
2019-04-25T15:58:01.403Z,99547.38
2019-04-25T16:00:35.543Z,99542.06
2019-04-25T16:03:04.107Z,99537.77
2019-04-25T16:05:32.286Z,99536.95
2019-04-25T16:08:00.521Z,99529.28
2019-04-25T16:10:29.800Z,99525.81
2019-04-25T16:12:58.061Z,99524.77
2019-04-25T16:15:27.588Z,99522.89
2019-04-25T16:17:54.873Z,99525.36
2019-04-25T16:20:23.157Z,99530.56
2019-04-25T16:22:51.291Z,99523.05
2019-04-25T16:25:19.642Z,99530.56
2019-04-25T16:27:47.825Z,99519.94
2019-04-25T16:30:16.066Z,99524.65
2019-04-25T16:32:44.276Z,99517.20
2019-04-25T16:35:12.483Z,99514.70
2019-04-25T16:37:41.342Z,99517.42
2019-04-25T16:40:09.876Z,99505.37
2019-04-25T16:42:38.227Z,99504.00
2019-04-25T16:45:07.672Z,99510.47
2019-04-25T16:47:35.875Z,99518.63
2019-04-25T16:50:04.050Z,99516.30
2019-04-25T16:52:32.224Z,99519.46
2019-04-25T16:55:00.376Z,99516.94
2019-04-25T16:57:28.606Z,99515.33
2019-04-25T16:59:56.907Z,99514.14
2019-04-25T17:02:35.302Z,99514.77
2019-04-25T17:04:58.498Z,99512.47
2019-04-25T17:07:27.134Z,99504.95
2019-04-25T17:09:55.256Z,99499.91
2019-04-25T17:12:24.036Z,99491.65
2019-04-25T17:15:11.174Z,99490.69
2019-04-25T17:17:45.699Z,99484.70
2019-04-25T17:20:22.403Z,99474.29
2019-04-25T17:22:50.600Z,99478.04
2019-04-25T17:25:19.356Z,99473.94
2019-04-25T17:27:47.624Z,99479.77
2019-04-25T17:30:16.187Z,99480.41
2019-04-25T17:33:06.237Z,99481.14
2019-04-25T17:35:48.258Z,99472.92
2019-04-25T17:38:20.199Z,99472.90
2019-04-25T17:40:48.882Z,99475.47
2019-04-25T17:43:17.144Z,99475.84
2019-04-25T17:45:45.361Z,99466.56
2019-04-25T17:48:13.556Z,99464.28
2019-04-25T17:50:41.820Z,99469.09
2019-04-25T17:53:10.109Z,99466.53
2019-04-25T17:55:38.253Z,99456.94
2019-04-25T17:58:06.439Z,99453.99
2019-04-25T18:00:37.815Z,99459.64
2019-04-25T18:03:08.344Z,99449.98
2019-04-25T18:05:36.646Z,99447.91
2019-04-25T18:08:05.032Z,99444.51
2019-04-25T18:10:34.287Z,99452.27
2019-04-25T18:13:02.638Z,99452.57
2019-04-25T18:15:48.720Z,99448.54
2019-04-25T18:18:37.037Z,99437.94
2019-04-25T18:21:05.340Z,99436.24
2019-04-25T18:24:04.678Z,99437.46
2019-04-25T18:26:54.838Z,99440.66
2019-04-25T18:29:23.211Z,99442.96
2019-04-25T18:31:51.458Z,99444.80
2019-04-25T18:34:29.082Z,99445.36
2019-04-25T18:37:18.934Z,99448.17
2019-04-25T18:39:52.595Z,99446.21
2019-04-25T18:42:39.956Z,99448.98
2019-04-25T18:45:10.739Z,99451.58
2019-04-25T18:47:39.097Z,99459.75
2019-04-25T18:50:09.232Z,99463.22
2019-04-25T18:52:56.441Z,99467.29
2019-04-25T18:55:34.210Z,99472.97
2019-04-25T18:58:19.612Z,99468.22
2019-04-25T19:01:00.745Z,99466.87
2019-04-25T19:03:48.009Z,99466.07
2019-04-25T19:06:18.049Z,99468.48
2019-04-25T19:08:47.082Z,99471.30
2019-04-25T19:11:15.559Z,99473.98
2019-04-25T19:13:43.851Z,99465.63
2019-04-25T19:16:12.114Z,99469.09
2019-04-25T19:18:41.448Z,99467.81
2019-04-25T19:21:10.480Z,99475.80
2019-04-25T19:23:39.390Z,99472.34
2019-04-25T19:26:07.818Z,99473.23
2019-04-25T19:28:36.222Z,99473.00
2019-04-25T19:31:04.591Z,99469.75
2019-04-25T19:33:35.908Z,99461.84
2019-04-25T19:36:03.143Z,99464.20
2019-04-25T19:38:31.489Z,99467.03
2019-04-25T19:41:18.618Z,99466.41
2019-04-25T19:43:56.400Z,99459.95
2019-04-25T19:46:42.853Z,99455.68
2019-04-25T19:49:11.195Z,99455.36
2019-04-25T19:51:39.419Z,99464.09
2019-04-25T19:54:07.595Z,99466.78
2019-04-25T19:56:36.082Z,99468.08
2019-04-25T19:59:04.655Z,99469.35
2019-04-25T20:01:32.766Z,99473.98
2019-04-25T20:04:35.098Z,99466.97
2019-04-25T20:07:28.005Z,99471.83
2019-04-25T20:10:20.902Z,99468.09
2019-04-25T20:12:52.169Z,99473.23
2019-04-25T20:15:20.965Z,99470.45
2019-04-25T20:17:49.802Z,99474.75
2019-04-25T20:20:18.543Z,99479.40
2019-04-25T20:22:48.160Z,99476.75
2019-04-25T20:25:16.960Z,99477.12
2019-04-25T20:27:46.648Z,99466.25
2019-04-25T20:30:15.431Z,99467.95
2019-04-25T20:32:43.582Z,99468.70
2019-04-25T20:35:11.928Z,99462.89
2019-04-25T20:37:40.089Z,99456.28
2019-04-25T20:40:08.790Z,99454.82
2019-04-25T20:42:37.105Z,99463.08
2019-04-25T20:45:06.956Z,99455.32
2019-04-25T20:47:35.132Z,99459.03
2019-04-25T20:50:03.752Z,99459.16
2019-04-25T20:52:32.011Z,99456.95
2019-04-25T20:55:00.538Z,99462.59
2019-04-25T20:57:28.686Z,99451.28
2019-04-25T20:59:58.076Z,99453.58
2019-04-25T21:02:26.884Z,99455.35
2019-04-25T21:04:54.992Z,99454.24
2019-04-25T21:07:23.139Z,99454.47
2019-04-25T21:09:51.862Z,99513.52
2019-04-25T21:12:20.493Z,99548.77
2019-04-25T21:15:10.807Z,99540.41
2019-04-25T21:17:58.369Z,99520.53
2019-04-25T21:20:26.763Z,99543.02
2019-04-25T21:22:55.823Z,99553.58
2019-04-25T21:25:24.363Z,99556.75
2019-04-25T21:27:52.590Z,99570.33
2019-04-25T21:30:20.886Z,99587.81
2019-04-25T21:32:53.680Z,99604.49
2019-04-25T21:35:23.304Z,99599.37
2019-04-25T21:37:52.176Z,99600.36
2019-04-25T21:40:29.924Z,99601.08
2019-04-25T21:43:03.866Z,99602.27
2019-04-25T21:45:32.348Z,99620.22
2019-04-25T21:48:01.157Z,99624.14
2019-04-25T21:50:29.651Z,99623.16
2019-04-25T21:52:59.180Z,99629.81
2019-04-25T21:55:27.598Z,99639.76
2019-04-25T21:57:56.338Z,99646.02
2019-04-25T22:00:42.416Z,99651.55
2019-04-25T22:03:11.855Z,99656.47
2019-04-25T22:05:40.335Z,99653.40
2019-04-25T22:08:08.640Z,99666.09
2019-04-25T22:10:36.868Z,99666.09
2019-04-25T22:13:11.996Z,99662.68
2019-04-25T22:15:35.024Z,99665.77
2019-04-25T22:18:04.433Z,99670.72
2019-04-25T22:20:32.602Z,99679.03
2019-04-25T22:23:00.727Z,99682.67
2019-04-25T22:25:29.132Z,99689.30
2019-04-25T22:27:58.716Z,99685.56
2019-04-25T22:30:27.384Z,99694.06
2019-04-25T22:33:03.520Z,99700.83
2019-04-25T22:35:50.816Z,99695.61
2019-04-25T22:38:19.189Z,99701.63
2019-04-25T22:40:47.363Z,99711.31
2019-04-25T22:43:16.625Z,99710.25
2019-04-25T22:45:45.107Z,99705.14
2019-04-25T22:48:13.400Z,99705.63
2019-04-25T22:50:41.892Z,99712.27
2019-04-25T22:53:21.519Z,99717.48
2019-04-25T22:55:40.041Z,99712.06
2019-04-25T22:58:08.245Z,99705.99
2019-04-25T23:00:37.702Z,99712.37
2019-04-25T23:03:11.452Z,99711.29
2019-04-25T23:05:49.447Z,99695.52
2019-04-25T23:08:20.731Z,99692.73
2019-04-25T23:10:48.997Z,99698.00
2019-04-25T23:13:17.310Z,99702.14
2019-04-25T23:15:45.570Z,99701.88
2019-04-25T23:18:14.091Z,99706.73
2019-04-25T23:20:42.406Z,99707.95
2019-04-25T23:23:11.722Z,99704.40
2019-04-25T23:26:00.442Z,99700.48
2019-04-25T23:28:32.517Z,99706.83
2019-04-25T23:31:06.514Z,99703.67
2019-04-25T23:33:34.785Z,99700.92
2019-04-25T23:36:03.090Z,99697.72
2019-04-25T23:38:31.395Z,99690.23
2019-04-25T23:40:59.729Z,99677.20
2019-04-25T23:43:28.024Z,99675.36
2019-04-25T23:45:56.229Z,99662.07
2019-04-25T23:48:24.520Z,99655.51
2019-04-25T23:50:53.717Z,99654.41
2019-04-25T23:53:21.921Z,99663.73
2019-04-25T23:55:50.447Z,99675.62
2019-04-25T23:58:18.641Z,99691.44
